Time;durP1;ratioP1;P1;durP2;ratioP2;P2;SDS_P1;SDS_P2;PMS_P1;PMS_P2;Temp;Humidity;BMP_temperature;BMP_pressure;BME280_temperature;BME280_humidity;BME280_pressure;Samples;Min_cycle;Max_cycle;Signal;HPM_P1;HPM_P2
2023/09/01 00:02:18;;;;;;;2.80;1.73;;;15.70;99.90;;;;;;5086737;28;20615;-75
2023/09/01 00:04:45;;;;;;;3.43;2.00;;;15.80;99.90;;;;;;5087149;28;20678;-76
2023/09/01 00:07:11;;;;;;;4.53;1.57;;;15.80;99.90;;;;;;5086005;28;20650;-75
2023/09/01 00:09:39;;;;;;;1.50;1.30;;;15.80;99.90;;;;;;5086450;28;20641;-75
2023/09/01 00:12:07;;;;;;;1.70;1.60;;;15.60;99.90;;;;;;5086403;28;20774;-75
2023/09/01 00:14:34;;;;;;;1.50;1.40;;;15.70;99.90;;;;;;5087673;28;21833;-75
2023/09/01 00:17:00;;;;;;;3.40;1.57;;;15.70;99.90;;;;;;5086701;28;21378;-75
2023/09/01 00:19:27;;;;;;;4.27;1.33;;;15.70;99.90;;;;;;5085489;28;21198;-75
2023/09/01 00:21:54;;;;;;;1.00;0.90;;;15.70;99.90;;;;;;5086656;28;20715;-75
2023/09/01 00:24:21;;;;;;;1.93;1.60;;;15.70;99.90;;;;;;5086484;28;20624;-75
2023/09/01 00:26:49;;;;;;;1.80;1.70;;;15.70;99.90;;;;;;5086796;28;21188;-75
2023/09/01 00:29:16;;;;;;;2.93;2.17;;;15.60;99.90;;;;;;5087903;28;20628;-75
2023/09/01 00:31:42;;;;;;;1.80;1.70;;;15.60;99.90;;;;;;5090744;28;20616;-75
2023/09/01 00:34:08;;;;;;;2.10;1.87;;;15.60;99.90;;;;;;5090553;28;20982;-75
2023/09/01 00:36:35;;;;;;;2.20;1.60;;;15.60;99.90;;;;;;5090878;28;20329;-75
2023/09/01 00:39:02;;;;;;;1.23;1.13;;;15.60;99.90;;;;;;5090024;28;20663;-75
2023/09/01 00:41:29;;;;;;;1.47;1.10;;;15.60;99.90;;;;;;5089558;28;21220;-75
2023/09/01 00:43:57;;;;;;;2.10;1.90;;;15.70;99.90;;;;;;5090340;28;21208;-75
2023/09/01 00:46:25;;;;;;;2.30;1.60;;;15.60;99.90;;;;;;5090808;28;20635;-75
2023/09/01 00:48:51;;;;;;;1.73;1.60;;;15.70;99.90;;;;;;5090052;28;20730;-75
2023/09/01 00:51:18;;;;;;;1.33;1.23;;;15.70;99.90;;;;;;5089096;28;20635;-75
2023/09/01 00:53:45;;;;;;;1.40;1.23;;;15.70;99.90;;;;;;5090189;28;20612;-75
2023/09/01 00:56:13;;;;;;;2.40;1.70;;;15.60;99.90;;;;;;5090510;28;21198;-75
2023/09/01 00:58:40;;;;;;;1.40;1.30;;;15.60;99.90;;;;;;5090668;28;20655;-75
2023/09/01 01:01:08;;;;;;;1.40;1.30;;;15.60;99.90;;;;;;5089031;28;21055;-75
2023/09/01 01:03:35;;;;;;;1.97;1.87;;;15.60;99.90;;;;;;5089807;28;20622;-75
2023/09/01 01:06:14;;;;;;;2.07;1.63;;;15.70;99.90;;;;;;5089647;28;20630;-75
2023/09/01 01:08:51;;;;;;;3.10;1.87;;;15.70;99.90;;;;;;5089851;28;20721;-75
2023/09/01 01:11:38;;;;;;;1.83;1.73;;;15.60;99.90;;;;;;5088914;28;20624;-75
2023/09/01 01:14:13;;;;;;;1.53;1.37;;;15.60;99.90;;;;;;5090397;28;20727;-75
2023/09/01 01:16:42;;;;;;;2.00;1.23;;;15.60;99.90;;;;;;5089809;28;20619;-75
2023/09/01 01:19:30;;;;;;;1.77;1.47;;;15.60;99.90;;;;;;5089894;28;21046;-75
2023/09/01 01:22:01;;;;;;;1.20;1.10;;;15.60;99.90;;;;;;5070100;28;20740;-75
2023/09/01 01:24:32;;;;;;;1.60;1.50;;;15.60;99.90;;;;;;5089590;28;20635;-75
2023/09/01 01:27:01;;;;;;;1.40;1.30;;;15.70;99.90;;;;;;5089407;28;20648;-75
2023/09/01 01:29:28;;;;;;;1.70;1.60;;;15.50;99.90;;;;;;5089458;28;20658;-76
2023/09/01 01:31:57;;;;;;;2.20;1.67;;;15.60;99.90;;;;;;5089987;28;21260;-75
2023/09/01 01:34:33;;;;;;;1.83;1.73;;;15.60;99.90;;;;;;5089138;28;20623;-75
2023/09/01 01:37:06;;;;;;;5.20;1.53;;;15.40;99.90;;;;;;5089545;28;20643;-75
2023/09/01 01:39:36;;;;;;;1.80;1.70;;;15.40;99.90;;;;;;5088750;28;20652;-75
2023/09/01 01:42:10;;;;;;;1.50;1.40;;;15.50;99.90;;;;;;5089532;28;20634;-75
2023/09/01 01:44:40;;;;;;;1.20;1.10;;;15.50;99.90;;;;;;5089551;28;20632;-75
2023/09/01 01:47:08;;;;;;;1.80;1.30;;;15.60;99.90;;;;;;5088927;28;20627;-75
2023/09/01 01:49:34;;;;;;;2.80;1.63;;;15.60;99.90;;;;;;5087743;28;20620;-75
2023/09/01 01:52:02;;;;;;;2.20;1.77;;;15.60;99.90;;;;;;5088556;28;21262;-75
2023/09/01 01:54:30;;;;;;;1.90;1.70;;;15.60;99.90;;;;;;5089256;28;20628;-75
2023/09/01 01:56:58;;;;;;;1.60;1.50;;;15.60;99.90;;;;;;5089253;28;20636;-75
2023/09/01 01:59:25;;;;;;;1.50;1.40;;;15.60;99.90;;;;;;5087728;28;20669;-75
2023/09/01 02:01:52;;;;;;;2.37;1.50;;;15.70;99.90;;;;;;5087451;28;20662;-75
2023/09/01 02:04:19;;;;;;;1.90;1.80;;;15.60;99.90;;;;;;5088755;28;20641;-75
2023/09/01 02:06:45;;;;;;;5.20;1.87;;;15.70;99.90;;;;;;5089058;28;20629;-75
2023/09/01 02:09:13;;;;;;;1.40;1.20;;;15.70;99.90;;;;;;5088401;28;20621;-75
2023/09/01 02:11:40;;;;;;;1.33;1.23;;;15.70;99.90;;;;;;5088666;28;20731;-75
2023/09/01 02:14:09;;;;;;;2.10;1.90;;;15.80;99.90;;;;;;5088398;28;20628;-75
2023/09/01 02:16:36;;;;;;;1.17;1.07;;;15.70;99.90;;;;;;5088762;28;20632;-75
2023/09/01 02:19:04;;;;;;;1.03;1.03;;;15.80;99.90;;;;;;5088566;28;20662;-75
2023/09/01 02:21:32;;;;;;;2.83;1.63;;;15.80;99.90;;;;;;5088280;28;20719;-75
2023/09/01 02:24:01;;;;;;;2.00;1.80;;;15.80;99.90;;;;;;5088555;28;20979;-75
2023/09/01 02:26:31;;;;;;;1.43;1.33;;;15.70;99.90;;;;;;5087666;28;21202;-75
2023/09/01 02:28:59;;;;;;;1.43;1.07;;;15.70;99.90;;;;;;5088759;28;20628;-75
2023/09/01 02:31:28;;;;;;;1.83;1.33;;;15.70;99.90;;;;;;5088275;28;21083;-75
2023/09/01 02:33:55;;;;;;;1.80;1.67;;;15.70;99.90;;;;;;5088475;28;21390;-75
2023/09/01 02:36:26;;;;;;;3.80;1.40;;;15.70;99.90;;;;;;5088201;28;20624;-75
2023/09/01 02:38:54;;;;;;;2.60;1.50;;;15.70;99.90;;;;;;5088139;28;20803;-75
2023/09/01 02:41:23;;;;;;;1.80;1.00;;;15.60;99.90;;;;;;5087303;28;20620;-75
2023/09/01 02:43:51;;;;;;;1.40;1.10;;;15.60;99.90;;;;;;5088690;28;20631;-75
2023/09/01 02:46:19;;;;;;;1.70;1.60;;;15.60;99.90;;;;;;5088376;28;20722;-75
2023/09/01 02:48:49;;;;;;;1.97;1.00;;;15.60;99.90;;;;;;5087936;28;20620;-75
2023/09/01 02:51:16;;;;;;;0.80;0.80;;;15.70;99.90;;;;;;5086522;28;21268;-75
2023/09/01 02:53:43;;;;;;;1.33;1.23;;;15.70;99.90;;;;;;5087848;28;20707;-75
2023/09/01 02:56:10;;;;;;;1.27;1.23;;;15.70;99.90;;;;;;5087329;28;20609;-75
2023/09/01 02:58:37;;;;;;;0.90;0.90;;;15.70;99.90;;;;;;5087809;28;20653;-75
2023/09/01 03:01:07;;;;;;;1.70;1.60;;;15.80;99.90;;;;;;5087790;28;20624;-75
2023/09/01 03:03:34;;;;;;;1.43;1.33;;;15.80;99.90;;;;;;5085846;28;21305;-75
2023/09/01 03:06:05;;;;;;;2.20;1.30;;;15.80;99.90;;;;;;5087862;28;20651;-75
2023/09/01 03:08:32;;;;;;;2.10;1.40;;;15.70;99.90;;;;;;5087607;28;20801;-75
2023/09/01 03:10:59;;;;;;;1.23;1.10;;;15.80;99.90;;;;;;5086505;28;20635;-75
2023/09/01 03:13:25;;;;;;;1.77;1.00;;;15.80;99.90;;;;;;5087305;28;20624;-75
2023/09/01 03:15:54;;;;;;;1.33;1.10;;;15.90;99.90;;;;;;5087916;28;20631;-75
2023/09/01 03:18:21;;;;;;;3.13;1.50;;;15.90;99.90;;;;;;5087284;28;21256;-75
2023/09/01 03:20:48;;;;;;;1.17;1.00;;;15.80;99.90;;;;;;5085919;28;20632;-75
2023/09/01 03:23:16;;;;;;;1.53;1.17;;;15.90;99.90;;;;;;5087451;28;20623;-75
2023/09/01 03:25:43;;;;;;;1.37;1.27;;;15.90;99.90;;;;;;5087559;28;20613;-75
2023/09/01 03:28:10;;;;;;;1.80;1.30;;;15.80;99.90;;;;;;5087563;28;20799;-75
2023/09/01 03:30:37;;;;;;;0.90;0.90;;;15.80;99.90;;;;;;5086773;28;20712;-75
2023/09/01 03:33:06;;;;;;;1.10;0.90;;;15.90;99.90;;;;;;5087344;28;20620;-75
2023/09/01 03:35:32;;;;;;;3.13;1.20;;;15.90;99.90;;;;;;5086705;28;20651;-75
2023/09/01 03:37:59;;;;;;;2.00;1.17;;;15.90;99.90;;;;;;5086696;28;20796;-75
2023/09/01 03:40:27;;;;;;;6.93;1.50;;;16.00;99.90;;;;;;5086390;28;20616;-75
2023/09/01 03:42:54;;;;;;;1.60;1.50;;;15.90;99.90;;;;;;5087017;28;21087;-75
2023/09/01 03:45:21;;;;;;;1.53;1.10;;;15.90;99.90;;;;;;5087415;28;20612;-74
2023/09/01 03:47:48;;;;;;;1.10;1.00;;;16.00;99.90;;;;;;5087275;28;20616;-75
2023/09/01 03:50:14;;;;;;;1.43;1.33;;;16.00;99.90;;;;;;5086551;28;20658;-74
2023/09/01 03:52:40;;;;;;;1.17;1.07;;;16.00;99.90;;;;;;5086390;28;20992;-75
2023/09/01 03:55:08;;;;;;;1.43;1.13;;;15.90;99.90;;;;;;5086926;28;20211;-75
2023/09/01 03:57:36;;;;;;;2.00;1.80;;;15.90;99.90;;;;;;5087014;28;20620;-74
2023/09/01 04:00:12;;;;;;;2.70;1.10;;;15.90;99.90;;;;;;5087100;28;21312;-75
2023/09/01 04:02:39;;;;;;;1.27;1.10;;;15.90;99.90;;;;;;5084819;28;20624;-75
2023/09/01 04:05:05;;;;;;;1.73;1.20;;;15.90;99.90;;;;;;5087022;28;20635;-75
2023/09/01 04:07:32;;;;;;;1.50;1.23;;;15.90;99.90;;;;;;5086770;28;21198;-75
2023/09/01 04:09:59;;;;;;;1.50;1.20;;;15.90;99.90;;;;;;5086258;28;20619;-75
2023/09/01 04:12:26;;;;;;;1.40;1.30;;;15.80;99.90;;;;;;5086656;28;20612;-75
2023/09/01 04:14:54;;;;;;;1.80;1.17;;;15.80;99.90;;;;;;5085870;28;20657;-75
2023/09/01 04:17:21;;;;;;;1.87;1.50;;;15.70;99.90;;;;;;5087403;28;20625;-75
2023/09/01 04:19:48;;;;;;;0.93;0.93;;;15.70;99.90;;;;;;5086437;28;20668;-75
2023/09/01 04:22:15;;;;;;;1.33;0.93;;;15.70;99.90;;;;;;5086704;28;20972;-75
2023/09/01 04:24:43;;;;;;;1.23;1.00;;;15.70;99.90;;;;;;5087208;28;20623;-75
2023/09/01 04:27:09;;;;;;;1.30;1.20;;;15.70;99.90;;;;;;5086272;28;20624;-75
2023/09/01 04:29:38;;;;;;;1.00;1.00;;;15.80;99.90;;;;;;5085701;28;20642;-75
2023/09/01 04:32:06;;;;;;;1.40;1.30;;;15.80;99.90;;;;;;5086516;28;20639;-75
2023/09/01 04:34:33;;;;;;;2.00;0.90;;;15.70;99.90;;;;;;5086774;28;21216;-75
2023/09/01 04:37:00;;;;;;;1.10;1.10;;;15.70;99.90;;;;;;5086077;28;20770;-75
2023/09/01 04:39:27;;;;;;;1.70;1.33;;;15.80;99.90;;;;;;5086052;28;20656;-75
2023/09/01 04:41:53;;;;;;;1.40;1.30;;;15.90;99.90;;;;;;5086821;28;20636;-75
2023/09/01 04:44:20;;;;;;;1.83;1.40;;;16.00;99.90;;;;;;5087070;28;21123;-75
2023/09/01 04:46:47;;;;;;;1.60;1.47;;;15.90;99.90;;;;;;5086653;28;20620;-75
2023/09/01 04:49:15;;;;;;;1.37;1.27;;;16.00;99.90;;;;;;5085865;28;20631;-76
2023/09/01 04:51:42;;;;;;;1.03;1.03;;;15.90;99.90;;;;;;5085973;28;20672;-75
2023/09/01 04:54:09;;;;;;;1.47;1.37;;;15.90;99.90;;;;;;5086766;28;21250;-75
2023/09/01 04:56:36;;;;;;;1.73;1.13;;;15.90;99.90;;;;;;5086378;28;20623;-75
2023/09/01 04:59:02;;;;;;;1.63;1.10;;;15.90;99.90;;;;;;5085839;28;20653;-75
2023/09/01 05:01:29;;;;;;;1.13;1.03;;;16.00;99.90;;;;;;5085829;28;20636;-75
2023/09/01 05:03:56;;;;;;;1.80;1.30;;;16.00;99.90;;;;;;5085297;28;20616;-75
2023/09/01 05:06:24;;;;;;;1.63;1.03;;;16.00;99.90;;;;;;5086734;28;20742;-75
2023/09/01 05:08:51;;;;;;;1.53;1.43;;;16.00;99.90;;;;;;5085377;28;20624;-75
2023/09/01 05:11:18;;;;;;;2.83;0.70;;;16.00;99.90;;;;;;5085259;28;21153;-75
2023/09/01 05:13:45;;;;;;;1.10;1.10;;;16.00;99.90;;;;;;5086437;28;21051;-75
2023/09/01 05:16:13;;;;;;;1.50;1.20;;;16.00;99.90;;;;;;5089691;28;20628;-75
2023/09/01 05:18:39;;;;;;;1.20;1.07;;;16.10;99.90;;;;;;5090163;28;20635;-75
2023/09/01 05:21:06;;;;;;;1.27;1.17;;;16.10;99.90;;;;;;5088848;28;20624;-75
2023/09/01 05:23:35;;;;;;;1.43;1.00;;;16.10;99.90;;;;;;5089090;28;21177;-75
2023/09/01 05:26:02;;;;;;;2.10;1.10;;;16.10;99.90;;;;;;5089394;28;21165;-75
2023/09/01 05:28:29;;;;;;;1.47;1.20;;;16.10;99.90;;;;;;5089387;28;20628;-75
2023/09/01 05:30:57;;;;;;;1.30;1.20;;;16.20;99.90;;;;;;5088497;28;20987;-75
2023/09/01 05:33:24;;;;;;;0.90;0.90;;;16.10;99.90;;;;;;5088756;28;20604;-75
2023/09/01 05:35:50;;;;;;;4.00;1.20;;;16.20;99.90;;;;;;5089545;28;20617;-75
2023/09/01 05:38:17;;;;;;;0.97;0.87;;;16.20;99.90;;;;;;5089002;28;20708;-76
2023/09/01 05:40:45;;;;;;;1.03;0.87;;;16.10;99.90;;;;;;5089276;28;20662;-75
2023/09/01 05:43:17;;;;;;;1.10;1.10;;;16.20;99.90;;;;;;5089358;28;20628;-75
2023/09/01 05:45:44;;;;;;;1.37;1.27;;;16.10;99.90;;;;;;5089114;28;21195;-75
2023/09/01 05:48:10;;;;;;;1.10;1.00;;;16.10;99.90;;;;;;5089171;28;21203;-75
2023/09/01 05:50:37;;;;;;;1.50;1.20;;;16.10;99.90;;;;;;5088969;28;21242;-75
2023/09/01 05:53:04;;;;;;;1.27;1.03;;;16.10;99.90;;;;;;5089228;28;21204;-75
2023/09/01 05:55:31;;;;;;;1.27;1.17;;;16.20;99.90;;;;;;5089176;28;20616;-76
2023/09/01 05:57:59;;;;;;;0.83;0.80;;;16.10;99.90;;;;;;5088879;28;20624;-75
2023/09/01 06:00:26;;;;;;;1.60;0.70;;;16.20;99.90;;;;;;5088700;28;20664;-75
2023/09/01 06:02:54;;;;;;;1.13;1.03;;;16.20;99.90;;;;;;5087291;28;20628;-75
2023/09/01 06:05:21;;;;;;;2.20;1.27;;;16.10;99.90;;;;;;5088528;28;20659;-75
2023/09/01 06:07:48;;;;;;;1.00;0.77;;;16.30;99.90;;;;;;5088632;28;20988;-75
2023/09/01 06:10:15;;;;;;;1.43;1.20;;;16.20;99.90;;;;;;5088110;28;20624;-76
2023/09/01 06:12:42;;;;;;;1.53;1.07;;;16.20;99.90;;;;;;5089356;28;20617;-75
2023/09/01 06:15:11;;;;;;;1.60;1.50;;;16.30;99.90;;;;;;5088870;28;21155;-75
2023/09/01 06:17:38;;;;;;;1.33;1.00;;;16.10;99.90;;;;;;5088537;28;20698;-75
2023/09/01 06:20:06;;;;;;;1.17;0.83;;;16.10;99.90;;;;;;5087876;28;20656;-76
2023/09/01 06:22:33;;;;;;;0.90;0.90;;;16.10;99.90;;;;;;5088686;28;20633;-77
2023/09/01 06:25:00;;;;;;;1.20;1.10;;;16.00;99.90;;;;;;5088296;28;20628;-76
2023/09/01 06:27:26;;;;;;;11.63;1.17;;;16.00;99.90;;;;;;5087150;28;20629;-76
2023/09/01 06:29:56;;;;;;;1.43;0.90;;;16.00;99.90;;;;;;5087547;28;20967;-76
2023/09/01 06:32:25;;;;;;;1.23;1.00;;;16.00;99.90;;;;;;5088502;28;21308;-76
2023/09/01 06:34:52;;;;;;;1.20;1.07;;;16.00;99.90;;;;;;5088275;28;20665;-76
2023/09/01 06:37:19;;;;;;;0.83;0.83;;;16.10;99.90;;;;;;5088969;28;20628;-76
2023/09/01 06:39:46;;;;;;;2.50;1.20;;;16.10;99.90;;;;;;5087808;28;20652;-76
2023/09/01 06:42:12;;;;;;;0.90;0.90;;;16.10;99.90;;;;;;5087769;28;20683;-76
2023/09/01 06:44:39;;;;;;;1.27;0.73;;;16.10;99.90;;;;;;5089002;28;20642;-76
2023/09/01 06:47:06;;;;;;;1.23;1.13;;;16.10;99.90;;;;;;5088206;28;20636;-76
2023/09/01 06:49:34;;;;;;;0.93;0.73;;;16.20;99.90;;;;;;5087957;28;20617;-76
2023/09/01 06:52:02;;;;;;;1.10;0.90;;;16.30;99.90;;;;;;5087507;28;20631;-76
2023/09/01 06:54:28;;;;;;;1.43;1.00;;;16.30;99.90;;;;;;5087981;28;20740;-76
2023/09/01 06:56:55;;;;;;;1.37;1.27;;;16.30;99.90;;;;;;5087972;28;20655;-76
2023/09/01 06:59:22;;;;;;;2.00;1.40;;;16.30;99.90;;;;;;5087565;28;20752;-76
2023/09/01 07:01:49;;;;;;;0.77;0.77;;;16.40;99.90;;;;;;5087399;28;20628;-76
2023/09/01 07:04:16;;;;;;;1.43;1.20;;;16.40;99.90;;;;;;5087753;28;20643;-78
2023/09/01 07:06:44;;;;;;;1.93;1.03;;;16.40;99.90;;;;;;5087788;28;20623;-79
2023/09/01 07:09:10;;;;;;;1.07;0.93;;;16.40;99.90;;;;;;5086989;28;22591;-79
2023/09/01 07:11:37;;;;;;;1.00;0.90;;;16.40;99.90;;;;;;5087203;28;20622;-79
2023/09/01 07:14:05;;;;;;;0.97;0.97;;;16.40;99.90;;;;;;5086126;28;20627;-79
2023/09/01 07:16:32;;;;;;;0.90;0.73;;;16.40;99.90;;;;;;5086672;28;21125;-80
2023/09/01 07:18:59;;;;;;;2.13;1.50;;;16.40;99.90;;;;;;5087546;28;20747;-80
2023/09/01 07:21:25;;;;;;;1.43;1.33;;;16.40;99.90;;;;;;5086595;28;20806;-79
2023/09/01 07:23:54;;;;;;;1.60;1.30;;;16.40;99.90;;;;;;5086200;28;20624;-78
2023/09/01 07:26:20;;;;;;;0.63;0.63;;;16.40;99.90;;;;;;5086151;28;20964;-78
2023/09/01 07:28:47;;;;;;;3.10;1.20;;;16.30;99.90;;;;;;5086870;28;20624;-80
2023/09/01 07:31:14;;;;;;;1.23;0.80;;;16.40;99.90;;;;;;5086449;28;20623;-80
2023/09/01 07:33:43;;;;;;;1.00;0.90;;;16.50;99.90;;;;;;5086976;28;21800;-80
2023/09/01 07:36:11;;;;;;;1.20;1.07;;;16.60;99.90;;;;;;5086922;28;20632;-80
2023/09/01 07:38:40;;;;;;;3.07;1.73;;;16.60;99.90;;;;;;5086528;28;20659;-79
2023/09/01 07:41:12;;;;;;;1.63;1.43;;;16.70;99.90;;;;;;5085495;28;20653;-80
2023/09/01 07:43:38;;;;;;;1.17;1.00;;;16.90;99.90;;;;;;5087930;28;21031;-79
2023/09/01 07:46:21;;;;;;;;;;;;;;;;;;;;;
2023/09/01 07:49:17;;;;;;;1.30;0.90;;;16.90;99.90;;;;;;5083898;28;20609;-79
2023/09/01 07:51:54;;;;;;;1.63;1.30;;;17.10;99.90;;;;;;5070691;28;20619;-79
2023/09/01 07:54:21;;;;;;;1.60;1.50;;;17.10;99.90;;;;;;5085958;28;20634;-79
2023/09/01 07:56:51;;;;;;;1.43;0.90;;;17.20;99.90;;;;;;5085511;28;20636;-78
2023/09/01 07:59:21;;;;;;;1.80;1.70;;;17.30;99.90;;;;;;5085444;28;20617;-79
2023/09/01 08:01:48;;;;;;;1.60;1.50;;;17.40;99.90;;;;;;5086239;28;20717;-78
2023/09/01 08:04:14;;;;;;;2.77;1.13;;;17.50;99.90;;;;;;5085363;28;20618;-78
2023/09/01 08:06:43;;;;;;;1.43;1.07;;;17.60;99.90;;;;;;5086111;28;20621;-78
2023/09/01 08:09:10;;;;;;;1.30;1.20;;;17.50;99.90;;;;;;5085720;28;20645;-78
2023/09/01 08:11:36;;;;;;;1.20;1.20;;;17.60;99.90;;;;;;5085637;28;20639;-78
2023/09/01 08:14:05;;;;;;;1.73;1.60;;;17.60;99.90;;;;;;5085290;28;20643;-79
2023/09/01 08:16:31;;;;;;;1.20;1.10;;;17.60;99.90;;;;;;5085945;28;20761;-79
2023/09/01 08:18:59;;;;;;;1.33;1.20;;;17.70;99.90;;;;;;5085982;28;20625;-78
2023/09/01 08:21:26;;;;;;;1.00;1.00;;;17.80;99.90;;;;;;5085339;28;21634;-78
2023/09/01 08:23:53;;;;;;;1.10;1.10;;;17.80;99.90;;;;;;5085753;28;22078;-78
2023/09/01 08:26:19;;;;;;;0.97;0.80;;;17.80;99.90;;;;;;5086497;28;20638;-78
2023/09/01 08:28:46;;;;;;;1.03;0.90;;;17.90;99.90;;;;;;5085718;28;20712;-78
2023/09/01 08:31:14;;;;;;;1.10;0.83;;;18.00;99.90;;;;;;5084838;28;20624;-77
2023/09/01 08:33:43;;;;;;;1.00;0.90;;;18.20;99.90;;;;;;5084706;28;20624;-78
2023/09/01 08:36:10;;;;;;;1.23;0.93;;;18.40;99.90;;;;;;5086304;28;20631;-78
2023/09/01 08:38:37;;;;;;;0.90;0.90;;;18.50;99.90;;;;;;5085902;28;20980;-77
2023/09/01 08:41:05;;;;;;;0.70;0.70;;;18.60;99.90;;;;;;5085269;28;21265;-77
2023/09/01 08:43:35;;;;;;;1.30;1.20;;;18.70;99.90;;;;;;5084588;28;20623;-77
2023/09/01 08:46:04;;;;;;;1.47;1.10;;;18.70;99.90;;;;;;5085206;28;20612;-77
2023/09/01 08:48:33;;;;;;;0.60;0.60;;;18.60;99.90;;;;;;5085729;28;20630;-77
2023/09/01 08:51:00;;;;;;;4.30;1.40;;;18.70;99.90;;;;;;5088418;28;20625;-77
2023/09/01 08:53:27;;;;;;;0.63;0.63;;;18.80;99.90;;;;;;5089154;28;20701;-77
2023/09/01 08:55:54;;;;;;;0.80;0.67;;;18.60;99.90;;;;;;5088573;28;20701;-77
2023/09/01 08:58:21;;;;;;;0.67;0.50;;;18.60;99.90;;;;;;5088148;28;20627;-77
2023/09/01 09:00:48;;;;;;;0.80;0.80;;;18.50;99.90;;;;;;5088866;28;20788;-77
2023/09/01 09:03:16;;;;;;;0.73;0.70;;;18.40;99.90;;;;;;5089648;28;20725;-76
2023/09/01 09:05:46;;;;;;;1.00;0.67;;;18.50;99.90;;;;;;5089470;28;20621;-77
2023/09/01 09:08:13;;;;;;;1.80;0.90;;;18.50;99.90;;;;;;5088823;28;22540;-76
2023/09/01 09:10:41;;;;;;;1.30;1.20;;;18.80;99.90;;;;;;5088800;28;21134;-77
2023/09/01 09:13:22;;;;;;;1.23;1.10;;;19.00;99.90;;;;;;5087902;28;21196;-76
2023/09/01 09:16:07;;;;;;;1.70;1.30;;;19.20;99.90;;;;;;5088990;28;20643;-76
2023/09/01 09:18:34;;;;;;;0.90;0.90;;;19.40;99.90;;;;;;5087967;28;20633;-77
2023/09/01 09:21:02;;;;;;;1.07;0.90;;;19.50;99.90;;;;;;5088360;28;20657;-76
2023/09/01 09:23:43;;;;;;;1.80;1.20;;;19.50;99.90;;;;;;5088574;28;20625;-77
2023/09/01 09:26:09;;;;;;;1.50;1.17;;;19.60;99.90;;;;;;5089266;28;20678;-76
2023/09/01 09:28:37;;;;;;;1.00;1.00;;;19.70;99.90;;;;;;5088612;28;20986;-77
2023/09/01 09:31:04;;;;;;;1.10;1.00;;;19.80;99.90;;;;;;5087577;28;20621;-76
2023/09/01 09:33:33;;;;;;;1.53;1.33;;;19.80;99.90;;;;;;5087858;28;20631;-76
2023/09/01 09:36:04;;;;;;;1.07;1.07;;;19.80;99.90;;;;;;5089224;28;20714;-76
2023/09/01 09:38:40;;;;;;;1.33;1.03;;;19.90;99.90;;;;;;5088697;28;20630;-76
2023/09/01 09:41:07;;;;;;;1.40;1.30;;;20.10;99.90;;;;;;5086858;28;20650;-76
2023/09/01 09:43:45;;;;;;;0.97;0.87;;;20.10;99.90;;;;;;5087540;28;20638;-76
2023/09/01 09:46:11;;;;;;;5.27;1.30;;;20.00;99.90;;;;;;5088377;28;20624;-76
2023/09/01 09:48:39;;;;;;;1.60;1.03;;;19.90;99.90;;;;;;5089218;28;20654;-76
2023/09/01 09:51:08;;;;;;;2.20;0.90;;;19.90;99.90;;;;;;5087904;28;20610;-76
2023/09/01 09:53:37;;;;;;;0.80;0.80;;;19.90;99.90;;;;;;5089422;28;20630;-76
2023/09/01 09:56:17;;;;;;;0.90;0.90;;;19.80;99.90;;;;;;5088031;28;20655;-76
2023/09/01 09:58:46;;;;;;;1.70;1.10;;;19.70;99.90;;;;;;5089441;28;20626;-76
2023/09/01 10:01:19;;;;;;;1.10;1.00;;;19.60;99.90;;;;;;5087607;28;20662;-76
2023/09/01 10:03:48;;;;;;;0.90;0.80;;;19.50;99.90;;;;;;5088335;28;20613;-76
2023/09/01 10:06:17;;;;;;;1.13;1.10;;;19.30;99.90;;;;;;5088965;28;20994;-76
2023/09/01 10:08:45;;;;;;;2.43;1.20;;;19.40;99.90;;;;;;5088549;28;20634;-76
2023/09/01 10:11:14;;;;;;;1.60;1.37;;;19.50;99.90;;;;;;5087485;28;20619;-76
2023/09/01 10:13:44;;;;;;;0.53;0.53;;;19.70;99.90;;;;;;5089113;28;20623;-76
2023/09/01 10:16:13;;;;;;;2.30;0.97;;;19.50;99.90;;;;;;5088463;28;21242;-76
2023/09/01 10:18:42;;;;;;;1.00;1.00;;;19.60;99.90;;;;;;5088253;28;21130;-76
2023/09/01 10:21:09;;;;;;;1.47;1.37;;;19.70;99.90;;;;;;5087497;28;20659;-76
2023/09/01 10:23:38;;;;;;;1.80;1.30;;;19.70;99.90;;;;;;5088674;28;20671;-76
2023/09/01 10:26:16;;;;;;;0.90;0.90;;;19.70;99.90;;;;;;5088384;28;21250;-76
2023/09/01 10:29:04;;;;;;;0.80;0.77;;;19.60;99.90;;;;;;5087965;28;20618;-76
2023/09/01 10:31:33;;;;;;;1.40;1.17;;;19.70;99.90;;;;;;5087391;28;21256;-76
2023/09/01 10:34:09;;;;;;;0.60;0.60;;;19.70;99.90;;;;;;5087984;28;20763;-76
2023/09/01 10:36:36;;;;;;;1.13;1.03;;;19.70;99.90;;;;;;5088820;28;20626;-76
2023/09/01 10:39:32;;;;;;;1.57;1.47;;;19.80;99.90;;;;;;5087003;28;20654;-76
2023/09/01 10:42:02;;;;;;;1.40;1.07;;;19.80;99.90;;;;;;5087840;28;20645;-76
2023/09/01 10:45:06;;;;;;;1.60;1.47;;;19.90;99.90;;;;;;5087103;28;21026;-76
2023/09/01 10:47:45;;;;;;;1.90;1.70;;;19.80;99.90;;;;;;5081355;28;20639;-76
2023/09/01 10:50:12;;;;;;;2.93;1.40;;;19.80;99.90;;;;;;5086113;28;20635;-75
2023/09/01 10:52:41;;;;;;;0.97;0.97;;;19.90;99.90;;;;;;5087284;28;20646;-76
2023/09/01 10:55:10;;;;;;;1.60;1.20;;;19.90;99.90;;;;;;5087355;28;20731;-76
2023/09/01 10:57:42;;;;;;;1.23;1.07;;;19.90;99.90;;;;;;5087572;28;20629;-76
2023/09/01 11:00:32;;;;;;;1.00;0.90;;;20.00;99.90;;;;;;5087113;28;20666;-76
2023/09/01 11:03:30;;;;;;;1.60;1.47;;;20.10;99.90;;;;;;5087716;28;20718;-76
2023/09/01 11:05:58;;;;;;;1.70;0.90;;;20.30;99.90;;;;;;5087259;28;21379;-75
2023/09/01 11:08:25;;;;;;;1.17;1.07;;;20.40;99.90;;;;;;5087867;28;20637;-75
2023/09/01 11:10:55;;;;;;;1.47;1.37;;;20.30;99.90;;;;;;5087096;28;21177;-75
2023/09/01 11:13:24;;;;;;;1.47;1.03;;;20.40;99.90;;;;;;5087642;28;20620;-75
2023/09/01 11:15:51;;;;;;;1.17;0.90;;;20.40;99.90;;;;;;5087244;28;20628;-75
2023/09/01 11:18:19;;;;;;;1.10;1.10;;;20.40;99.90;;;;;;5087381;28;20608;-75
2023/09/01 11:20:47;;;;;;;1.00;0.93;;;20.50;99.90;;;;;;5086430;28;20712;-75
2023/09/01 11:23:18;;;;;;;2.63;1.30;;;20.60;99.90;;;;;;5087319;28;21016;-75
2023/09/01 11:25:45;;;;;;;2.90;1.40;;;20.60;99.90;;;;;;5088200;28;20620;-75
2023/09/01 11:28:14;;;;;;;1.10;1.10;;;20.70;99.90;;;;;;5087213;28;20933;-76
2023/09/01 11:30:52;;;;;;;1.10;1.00;;;21.00;99.90;;;;;;5086464;28;20625;-76
2023/09/01 11:33:20;;;;;;;1.30;0.80;;;21.20;99.90;;;;;;5087151;28;20622;-75
2023/09/01 11:35:47;;;;;;;1.00;1.00;;;21.40;99.90;;;;;;5087501;28;20628;-75
2023/09/01 11:38:18;;;;;;;0.90;0.90;;;21.30;99.90;;;;;;5087298;28;20633;-76
2023/09/01 11:40:46;;;;;;;0.93;0.90;;;21.10;99.90;;;;;;5085143;28;20659;-76
2023/09/01 11:43:14;;;;;;;0.60;0.60;;;21.20;99.90;;;;;;5086243;28;20628;-76
2023/09/01 11:45:48;;;;;;;0.80;0.60;;;21.40;99.90;;;;;;5087514;28;20721;-75
2023/09/01 11:48:15;;;;;;;0.73;0.73;;;21.90;99.90;;;;;;5087158;28;21114;-76
2023/09/01 11:50:45;;;;;;;1.17;0.83;;;22.40;99.90;;;;;;5086512;28;20726;-76
2023/09/01 11:53:22;;;;;;;0.90;0.90;;;22.90;99.90;;;;;;5086371;28;20615;-76
2023/09/01 11:55:49;;;;;;;1.00;0.90;;;22.90;99.90;;;;;;5086828;28;20630;-76
2023/09/01 11:58:17;;;;;;;1.43;0.90;;;22.80;99.70;;;;;;5087243;28;21377;-76
2023/09/01 12:00:45;;;;;;;0.97;0.60;;;23.40;99.90;;;;;;5086235;28;20624;-76
2023/09/01 12:03:12;;;;;;;0.97;0.70;;;24.90;98.20;;;;;;5086083;28;20624;-76
2023/09/01 12:05:40;;;;;;;1.10;0.70;;;26.10;95.10;;;;;;5086394;28;20969;-76
2023/09/01 12:08:10;;;;;;;0.80;0.80;;;26.80;94.30;;;;;;5087593;28;20628;-76
2023/09/01 12:10:37;;;;;;;0.50;0.50;;;27.10;91.80;;;;;;5086158;28;20634;-76
2023/09/01 12:13:11;;;;;;;1.17;0.87;;;26.20;91.70;;;;;;5086607;28;20702;-76
2023/09/01 12:15:59;;;;;;;0.80;0.70;;;25.40;93.40;;;;;;5085461;28;20631;-76
2023/09/01 12:18:36;;;;;;;1.10;1.00;;;25.00;94.00;;;;;;5086299;28;21172;-76
2023/09/01 12:21:04;;;;;;;1.00;0.90;;;24.10;95.00;;;;;;5086304;28;20664;-76
2023/09/01 12:23:33;;;;;;;2.83;0.63;;;23.70;95.60;;;;;;5086747;28;21323;-76
2023/09/01 12:26:01;;;;;;;3.70;0.90;;;23.30;94.20;;;;;;5090040;28;20621;-75
2023/09/01 12:28:29;;;;;;;1.00;0.80;;;23.00;95.20;;;;;;5090534;28;21388;-76
2023/09/01 12:30:58;;;;;;;0.80;0.80;;;22.80;95.20;;;;;;5089952;28;21565;-75
2023/09/01 12:33:25;;;;;;;0.77;0.77;;;22.30;95.10;;;;;;5090626;28;20632;-75
2023/09/01 12:35:52;;;;;;;1.00;0.83;;;22.20;96.50;;;;;;5090613;28;20634;-75
2023/09/01 12:38:19;;;;;;;3.00;1.00;;;22.10;96.70;;;;;;5090662;28;20638;-75
2023/09/01 12:40:46;;;;;;;0.63;0.60;;;22.10;95.80;;;;;;5085576;28;20630;-75
2023/09/01 12:43:13;;;;;;;0.83;0.83;;;22.00;96.20;;;;;;5089957;28;21661;-75
2023/09/01 12:45:40;;;;;;;0.80;0.80;;;21.80;96.10;;;;;;5090435;28;20631;-75
2023/09/01 12:48:09;;;;;;;1.57;0.93;;;21.70;97.60;;;;;;5090385;28;21220;-75
2023/09/01 12:50:36;;;;;;;1.10;1.10;;;21.70;97.60;;;;;;5089269;28;20640;-75
2023/09/01 12:53:03;;;;;;;0.77;0.77;;;21.90;97.90;;;;;;5090549;28;20635;-75
2023/09/01 12:55:30;;;;;;;0.80;0.77;;;22.00;96.80;;;;;;5089317;28;20621;-75
2023/09/01 12:57:57;;;;;;;1.23;0.90;;;22.10;97.60;;;;;;5090326;28;20999;-75